Airport Name : Dakhla

Other Name : Dakhla

ICAO : GMMH

IATA : VIL

FAA :

Latitude : 23.718294

Longitude : -15.931994

Country : Western Sahara

Local Date and Time : 9/26/2018 2:08:00 PM

 

TAF (Terminal Aerodrome Forecast)

TAF GMMH 261100Z 2612/2718 06014KT 8000 NSC

 

METAR (METeorological Aerodrome Report)

GMMH 261200Z 05017KT CAVOK 34/14 Q1015 NOSIG

GMMH 261100Z 06013KT 8000 NSC 31/15 Q1015 NOSIG

GMMH 261000Z 06013KT 8000 NSC 30/16 Q1015 NOSIG